sensor_id;sensor_type;location;lat;lon;timestamp;temperature;humidity
16229;DHT22;8222;51.462;12.630;2022-09-30T00:01:48;8.90;99.90
16229;DHT22;8222;51.462;12.630;2022-09-30T00:04:22;8.90;99.90
16229;DHT22;8222;51.462;12.630;2022-09-30T00:06:49;8.80;99.90
16229;DHT22;8222;51.462;12.630;2022-09-30T00:09:16;8.80;99.90
16229;DHT22;8222;51.462;12.630;2022-09-30T00:11:42;8.80;99.90
16229;DHT22;8222;51.462;12.630;2022-09-30T00:14:13;8.70;99.90
16229;DHT22;8222;51.462;12.630;2022-09-30T00:16:40;8.80;99.90
16229;DHT22;8222;51.462;12.630;2022-09-30T00:19:08;8.70;99.90
16229;DHT22;8222;51.462;12.630;2022-09-30T00:21:36;8.40;99.90
16229;DHT22;8222;51.462;12.630;2022-09-30T00:24:03;8.30;99.90
16229;DHT22;8222;51.462;12.630;2022-09-30T00:26:29;8.30;99.90
16229;DHT22;8222;51.462;12.630;2022-09-30T00:28:57;8.40;99.90
16229;DHT22;8222;51.462;12.630;2022-09-30T00:31:24;8.50;99.90
16229;DHT22;8222;51.462;12.630;2022-09-30T00:33:50;8.50;99.90
16229;DHT22;8222;51.462;12.630;2022-09-30T00:36:42;8.60;99.90
16229;DHT22;8222;51.462;12.630;2022-09-30T00:41:43;8.70;99.90
16229;DHT22;8222;51.462;12.630;2022-09-30T00:44:48;9.40;99.90
16229;DHT22;8222;51.462;12.630;2022-09-30T00:50:46;8.80;99.90
16229;DHT22;8222;51.462;12.630;2022-09-30T00:55:59;8.90;99.90
16229;DHT22;8222;51.462;12.630;2022-09-30T00:58:30;8.90;99.90
16229;DHT22;8222;51.462;12.630;2022-09-30T01:00:59;8.80;99.90
16229;DHT22;8222;51.462;12.630;2022-09-30T01:03:35;8.90;99.90
16229;DHT22;8222;51.462;12.630;2022-09-30T01:06:02;8.70;99.90
16229;DHT22;8222;51.462;12.630;2022-09-30T01:08:30;8.80;99.90
16229;DHT22;8222;51.462;12.630;2022-09-30T01:10:57;8.70;99.90
16229;DHT22;8222;51.462;12.630;2022-09-30T01:13:24;8.70;99.90
16229;DHT22;8222;51.462;12.630;2022-09-30T01:19:12;8.70;99.90
16229;DHT22;8222;51.462;12.630;2022-09-30T01:30:19;8.80;99.90
16229;DHT22;8222;51.462;12.630;2022-09-30T01:33:24;8.80;99.90
16229;DHT22;8222;51.462;12.630;2022-09-30T01:41:11;8.70;99.90
16229;DHT22;8222;51.462;12.630;2022-09-30T01:44:07;8.80;99.90
16229;DHT22;8222;51.462;12.630;2022-09-30T01:46:40;8.90;99.90
16229;DHT22;8222;51.462;12.630;2022-09-30T01:49:29;8.80;99.90
16229;DHT22;8222;51.462;12.630;2022-09-30T01:54:52;8.80;99.90
16229;DHT22;8222;51.462;12.630;2022-09-30T02:00:00;8.90;99.90
16229;DHT22;8222;51.462;12.630;2022-09-30T02:02:30;8.80;99.90
16229;DHT22;8222;51.462;12.630;2022-09-30T02:05:04;8.70;99.90
16229;DHT22;8222;51.462;12.630;2022-09-30T02:10:37;8.50;99.90
16229;DHT22;8222;51.462;12.630;2022-09-30T02:13:16;8.50;99.90
16229;DHT22;8222;51.462;12.630;2022-09-30T02:15:50;8.40;99.90
16229;DHT22;8222;51.462;12.630;2022-09-30T02:18:25;8.40;99.90
16229;DHT22;8222;51.462;12.630;2022-09-30T02:20:57;8.40;99.90
16229;DHT22;8222;51.462;12.630;2022-09-30T02:23:27;8.30;99.90
16229;DHT22;8222;51.462;12.630;2022-09-30T02:26:06;8.20;99.90
16229;DHT22;8222;51.462;12.630;2022-09-30T02:28:36;8.10;99.90
16229;DHT22;8222;51.462;12.630;2022-09-30T02:31:05;8.10;99.90
16229;DHT22;8222;51.462;12.630;2022-09-30T02:39:27;8.20;99.90
16229;DHT22;8222;51.462;12.630;2022-09-30T02:42:01;8.30;99.90
16229;DHT22;8222;51.462;12.630;2022-09-30T02:44:28;8.20;99.90
16229;DHT22;8222;51.462;12.630;2022-09-30T02:58:22;8.20;99.90
16229;DHT22;8222;51.462;12.630;2022-09-30T03:00:53;8.20;99.90
16229;DHT22;8222;51.462;12.630;2022-09-30T03:05:44;8.30;99.90
16229;DHT22;8222;51.462;12.630;2022-09-30T03:08:11;8.20;99.90
16229;DHT22;8222;51.462;12.630;2022-09-30T03:10:37;8.10;99.90
16229;DHT22;8222;51.462;12.630;2022-09-30T03:16:18;8.20;99.90
16229;DHT22;8222;51.462;12.630;2022-09-30T03:21:40;8.10;99.90
16229;DHT22;8222;51.462;12.630;2022-09-30T03:29:25;8.10;99.90
16229;DHT22;8222;51.462;12.630;2022-09-30T03:43:22;7.90;99.90
16229;DHT22;8222;51.462;12.630;2022-09-30T03:48:49;7.90;99.90
16229;DHT22;8222;51.462;12.630;2022-09-30T03:51:16;7.90;99.90
16229;DHT22;8222;51.462;12.630;2022-09-30T03:53:42;7.90;99.90
16229;DHT22;8222;51.462;12.630;2022-09-30T03:56:10;7.80;99.90
16229;DHT22;8222;51.462;12.630;2022-09-30T03:58:41;7.70;99.90
16229;DHT22;8222;51.462;12.630;2022-09-30T04:01:16;7.70;99.90
16229;DHT22;8222;51.462;12.630;2022-09-30T04:03:43;7.80;99.90
16229;DHT22;8222;51.462;12.630;2022-09-30T04:06:12;7.80;99.90
16229;DHT22;8222;51.462;12.630;2022-09-30T04:08:37;7.80;99.90
16229;DHT22;8222;51.462;12.630;2022-09-30T04:11:03;7.70;99.90
16229;DHT22;8222;51.462;12.630;2022-09-30T04:13:30;7.70;99.90
16229;DHT22;8222;51.462;12.630;2022-09-30T04:15:56;7.70;99.90
16229;DHT22;8222;51.462;12.630;2022-09-30T04:18:22;7.80;99.90
16229;DHT22;8222;51.462;12.630;2022-09-30T04:20:49;7.70;99.90
16229;DHT22;8222;51.462;12.630;2022-09-30T04:23:14;7.80;99.90
16229;DHT22;8222;51.462;12.630;2022-09-30T04:25:40;7.80;99.90
16229;DHT22;8222;51.462;12.630;2022-09-30T04:28:06;7.80;99.90
16229;DHT22;8222;51.462;12.630;2022-09-30T04:30:31;8.40;99.90
16229;DHT22;8222;51.462;12.630;2022-09-30T04:32:57;8.20;99.90
16229;DHT22;8222;51.462;12.630;2022-09-30T04:35:22;7.90;99.90
16229;DHT22;8222;51.462;12.630;2022-09-30T04:37:48;7.90;99.90
16229;DHT22;8222;51.462;12.630;2022-09-30T04:40:16;7.80;99.90
16229;DHT22;8222;51.462;12.630;2022-09-30T04:42:42;7.70;99.90
16229;DHT22;8222;51.462;12.630;2022-09-30T04:45:09;7.80;99.90
16229;DHT22;8222;51.462;12.630;2022-09-30T04:47:35;7.80;99.90
16229;DHT22;8222;51.462;12.630;2022-09-30T04:50:01;7.80;99.90
16229;DHT22;8222;51.462;12.630;2022-09-30T04:52:26;7.90;99.90
16229;DHT22;8222;51.462;12.630;2022-09-30T04:54:54;7.80;99.90
16229;DHT22;8222;51.462;12.630;2022-09-30T04:57:20;7.80;99.90
16229;DHT22;8222;51.462;12.630;2022-09-30T04:59:45;7.90;99.90
16229;DHT22;8222;51.462;12.630;2022-09-30T05:02:15;7.80;99.90
16229;DHT22;8222;51.462;12.630;2022-09-30T05:04:41;7.80;99.90
16229;DHT22;8222;51.462;12.630;2022-09-30T05:07:06;7.60;99.90
16229;DHT22;8222;51.462;12.630;2022-09-30T05:09:36;8.50;99.90
16229;DHT22;8222;51.462;12.630;2022-09-30T05:12:02;7.60;99.90
16229;DHT22;8222;51.462;12.630;2022-09-30T05:14:30;7.60;99.90
16229;DHT22;8222;51.462;12.630;2022-09-30T05:16:56;6.80;99.90
16229;DHT22;8222;51.462;12.630;2022-09-30T05:19:21;7.70;99.90
16229;DHT22;8222;51.462;12.630;2022-09-30T05:21:47;7.60;99.90
16229;DHT22;8222;51.462;12.630;2022-09-30T05:24:15;7.60;99.90
16229;DHT22;8222;51.462;12.630;2022-09-30T05:26:41;8.30;99.90
16229;DHT22;8222;51.462;12.630;2022-09-30T05:29:07;7.60;99.90
16229;DHT22;8222;51.462;12.630;2022-09-30T05:31:35;7.60;99.90
16229;DHT22;8222;51.462;12.630;2022-09-30T05:34:01;7.50;99.90
16229;DHT22;8222;51.462;12.630;2022-09-30T05:36:27;7.60;99.90
16229;DHT22;8222;51.462;12.630;2022-09-30T05:38:53;7.50;99.90
16229;DHT22;8222;51.462;12.630;2022-09-30T05:41:21;7.60;99.90
16229;DHT22;8222;51.462;12.630;2022-09-30T05:43:47;7.60;99.90
16229;DHT22;8222;51.462;12.630;2022-09-30T05:46:15;7.60;99.90
16229;DHT22;8222;51.462;12.630;2022-09-30T05:48:40;7.70;99.90
16229;DHT22;8222;51.462;12.630;2022-09-30T05:51:08;7.70;99.90
16229;DHT22;8222;51.462;12.630;2022-09-30T05:53:36;7.60;99.90
16229;DHT22;8222;51.462;12.630;2022-09-30T05:56:07;7.60;99.90
16229;DHT22;8222;51.462;12.630;2022-09-30T05:58:35;8.10;99.90
16229;DHT22;8222;51.462;12.630;2022-09-30T06:01:15;7.60;99.90
16229;DHT22;8222;51.462;12.630;2022-09-30T06:03:42;7.80;99.90
16229;DHT22;8222;51.462;12.630;2022-09-30T06:06:10;7.70;99.90
16229;DHT22;8222;51.462;12.630;2022-09-30T06:08:35;7.70;99.90
16229;DHT22;8222;51.462;12.630;2022-09-30T06:11:07;7.80;99.90
16229;DHT22;8222;51.462;12.630;2022-09-30T06:13:36;8.00;99.90
16229;DHT22;8222;51.462;12.630;2022-09-30T06:16:04;8.00;99.90
16229;DHT22;8222;51.462;12.630;2022-09-30T06:18:31;8.00;99.90
16229;DHT22;8222;51.462;12.630;2022-09-30T06:21:01;8.10;99.90
16229;DHT22;8222;51.462;12.630;2022-09-30T06:23:28;8.30;99.90
16229;DHT22;8222;51.462;12.630;2022-09-30T06:25:54;8.40;99.90
16229;DHT22;8222;51.462;12.630;2022-09-30T06:28:21;8.80;99.90
16229;DHT22;8222;51.462;12.630;2022-09-30T06:30:47;8.70;99.90
16229;DHT22;8222;51.462;12.630;2022-09-30T06:33:14;8.80;99.90
16229;DHT22;8222;51.462;12.630;2022-09-30T06:35:41;8.90;99.90
16229;DHT22;8222;51.462;12.630;2022-09-30T06:38:09;8.90;99.90
16229;DHT22;8222;51.462;12.630;2022-09-30T06:40:35;9.00;99.90
16229;DHT22;8222;51.462;12.630;2022-09-30T06:43:02;9.10;99.90
16229;DHT22;8222;51.462;12.630;2022-09-30T06:45:28;9.30;99.90
16229;DHT22;8222;51.462;12.630;2022-09-30T06:47:59;9.40;99.90
16229;DHT22;8222;51.462;12.630;2022-09-30T06:50:25;9.50;99.90
16229;DHT22;8222;51.462;12.630;2022-09-30T06:52:50;9.70;99.90
16229;DHT22;8222;51.462;12.630;2022-09-30T06:55:19;9.80;99.90
16229;DHT22;8222;51.462;12.630;2022-09-30T06:57:46;9.90;99.90
16229;DHT22;8222;51.462;12.630;2022-09-30T07:00:13;10.00;99.90
16229;DHT22;8222;51.462;12.630;2022-09-30T07:02:40;10.10;99.90
16229;DHT22;8222;51.462;12.630;2022-09-30T07:05:10;10.60;99.90
16229;DHT22;8222;51.462;12.630;2022-09-30T07:07:36;10.30;99.90
16229;DHT22;8222;51.462;12.630;2022-09-30T07:10:03;10.40;99.90
16229;DHT22;8222;51.462;12.630;2022-09-30T07:12:29;10.60;99.90
16229;DHT22;8222;51.462;12.630;2022-09-30T07:14:54;10.80;99.90
16229;DHT22;8222;51.462;12.630;2022-09-30T07:17:21;11.00;99.90
16229;DHT22;8222;51.462;12.630;2022-09-30T07:19:46;11.10;99.90
16229;DHT22;8222;51.462;12.630;2022-09-30T07:22:12;11.20;99.90
16229;DHT22;8222;51.462;12.630;2022-09-30T07:24:57;11.40;99.90
16229;DHT22;8222;51.462;12.630;2022-09-30T07:27:27;11.60;99.90
16229;DHT22;8222;51.462;12.630;2022-09-30T07:29:56;11.70;99.90
16229;DHT22;8222;51.462;12.630;2022-09-30T07:32:21;11.80;99.90
16229;DHT22;8222;51.462;12.630;2022-09-30T07:34:48;12.00;99.90
16229;DHT22;8222;51.462;12.630;2022-09-30T07:37:17;12.10;99.90
16229;DHT22;8222;51.462;12.630;2022-09-30T07:39:45;12.30;99.90
16229;DHT22;8222;51.462;12.630;2022-09-30T07:42:12;12.40;99.90
16229;DHT22;8222;51.462;12.630;2022-09-30T07:44:39;12.60;99.90
16229;DHT22;8222;51.462;12.630;2022-09-30T07:47:11;12.70;99.90
16229;DHT22;8222;51.462;12.630;2022-09-30T07:49:41;12.80;99.90
16229;DHT22;8222;51.462;12.630;2022-09-30T07:52:07;12.90;99.90
16229;DHT22;8222;51.462;12.630;2022-09-30T07:54:34;13.00;99.90
16229;DHT22;8222;51.462;12.630;2022-09-30T07:57:02;13.20;99.90
16229;DHT22;8222;51.462;12.630;2022-09-30T07:59:30;13.30;99.90
16229;DHT22;8222;51.462;12.630;2022-09-30T08:01:56;13.30;99.90
16229;DHT22;8222;51.462;12.630;2022-09-30T08:04:23;13.50;99.90
16229;DHT22;8222;51.462;12.630;2022-09-30T08:06:55;13.70;99.90
16229;DHT22;8222;51.462;12.630;2022-09-30T08:09:22;13.80;99.90
16229;DHT22;8222;51.462;12.630;2022-09-30T08:11:48;13.80;99.90
16229;DHT22;8222;51.462;12.630;2022-09-30T08:14:19;13.90;99.90
16229;DHT22;8222;51.462;12.630;2022-09-30T08:16:46;13.90;99.90
16229;DHT22;8222;51.462;12.630;2022-09-30T08:19:14;14.10;99.90
16229;DHT22;8222;51.462;12.630;2022-09-30T08:21:41;14.20;99.90
16229;DHT22;8222;51.462;12.630;2022-09-30T08:24:07;14.40;99.90
16229;DHT22;8222;51.462;12.630;2022-09-30T08:26:33;14.40;99.90
16229;DHT22;8222;51.462;12.630;2022-09-30T08:28:59;14.50;99.90
16229;DHT22;8222;51.462;12.630;2022-09-30T08:31:25;14.70;99.90
16229;DHT22;8222;51.462;12.630;2022-09-30T08:33:52;14.90;99.90
16229;DHT22;8222;51.462;12.630;2022-09-30T08:36:24;15.10;99.90
16229;DHT22;8222;51.462;12.630;2022-09-30T08:38:50;15.20;99.90
16229;DHT22;8222;51.462;12.630;2022-09-30T08:47:34;16.00;99.90
16229;DHT22;8222;51.462;12.630;2022-09-30T08:50:18;16.30;99.90
16229;DHT22;8222;51.462;12.630;2022-09-30T08:52:50;16.40;99.90
16229;DHT22;8222;51.462;12.630;2022-09-30T08:55:39;16.50;99.90
16229;DHT22;8222;51.462;12.630;2022-09-30T08:58:14;16.50;99.90
16229;DHT22;8222;51.462;12.630;2022-09-30T09:00:41;16.50;99.90
16229;DHT22;8222;51.462;12.630;2022-09-30T09:03:10;16.30;99.90
16229;DHT22;8222;51.462;12.630;2022-09-30T09:08:40;15.80;99.90
16229;DHT22;8222;51.462;12.630;2022-09-30T09:19:49;15.90;99.90
16229;DHT22;8222;51.462;12.630;2022-09-30T09:22:22;16.00;99.90
16229;DHT22;8222;51.462;12.630;2022-09-30T09:24:49;16.10;99.90
16229;DHT22;8222;51.462;12.630;2022-09-30T09:30:17;16.30;99.90
16229;DHT22;8222;51.462;12.630;2022-09-30T09:32:58;16.30;99.90
16229;DHT22;8222;51.462;12.630;2022-09-30T09:38:23;16.60;99.90
16229;DHT22;8222;51.462;12.630;2022-09-30T09:46:53;17.20;99.90
16229;DHT22;8222;51.462;12.630;2022-09-30T09:49:28;17.30;99.90
16229;DHT22;8222;51.462;12.630;2022-09-30T09:54:45;17.40;99.90
16229;DHT22;8222;51.462;12.630;2022-09-30T09:57:15;17.50;99.90
16229;DHT22;8222;51.462;12.630;2022-09-30T10:00:11;17.60;99.90
16229;DHT22;8222;51.462;12.630;2022-09-30T10:03:18;17.70;99.90
16229;DHT22;8222;51.462;12.630;2022-09-30T10:06:01;17.70;99.90
16229;DHT22;8222;51.462;12.630;2022-09-30T10:08:30;17.80;99.90
16229;DHT22;8222;51.462;12.630;2022-09-30T10:10:59;18.00;99.90
16229;DHT22;8222;51.462;12.630;2022-09-30T10:16:02;18.30;99.90
16229;DHT22;8222;51.462;12.630;2022-09-30T10:18:35;18.20;99.90
16229;DHT22;8222;51.462;12.630;2022-09-30T10:21:05;18.20;99.90
16229;DHT22;8222;51.462;12.630;2022-09-30T10:23:40;18.30;99.90
16229;DHT22;8222;51.462;12.630;2022-09-30T10:26:21;18.30;99.90
16229;DHT22;8222;51.462;12.630;2022-09-30T10:28:51;18.40;99.90
16229;DHT22;8222;51.462;12.630;2022-09-30T10:31:39;18.40;99.90
16229;DHT22;8222;51.462;12.630;2022-09-30T10:36:54;18.60;99.90
16229;DHT22;8222;51.462;12.630;2022-09-30T10:42:20;18.70;99.90
16229;DHT22;8222;51.462;12.630;2022-09-30T10:45:01;18.70;99.90
16229;DHT22;8222;51.462;12.630;2022-09-30T10:47:28;18.80;99.90
16229;DHT22;8222;51.462;12.630;2022-09-30T10:52:36;18.80;99.90
16229;DHT22;8222;51.462;12.630;2022-09-30T10:55:13;18.90;99.90
16229;DHT22;8222;51.462;12.630;2022-09-30T10:57:52;19.00;99.90
16229;DHT22;8222;51.462;12.630;2022-09-30T11:00:22;18.80;99.90
16229;DHT22;8222;51.462;12.630;2022-09-30T11:03:11;18.90;99.90
16229;DHT22;8222;51.462;12.630;2022-09-30T11:05:40;18.90;99.90
16229;DHT22;8222;51.462;12.630;2022-09-30T11:08:20;19.00;99.90
16229;DHT22;8222;51.462;12.630;2022-09-30T11:13:42;19.20;99.90
16229;DHT22;8222;51.462;12.630;2022-09-30T11:18:58;19.20;99.90
16229;DHT22;8222;51.462;12.630;2022-09-30T11:21:26;19.20;99.90
16229;DHT22;8222;51.462;12.630;2022-09-30T11:24:02;19.00;99.90
16229;DHT22;8222;51.462;12.630;2022-09-30T11:29:27;19.00;99.90
16229;DHT22;8222;51.462;12.630;2022-09-30T11:40:28;19.50;99.90
16229;DHT22;8222;51.462;12.630;2022-09-30T11:43:21;19.60;99.90
16229;DHT22;8222;51.462;12.630;2022-09-30T11:54:16;19.60;99.90
16229;DHT22;8222;51.462;12.630;2022-09-30T11:59:50;19.60;99.90
16229;DHT22;8222;51.462;12.630;2022-09-30T12:02:39;19.40;99.90
16229;DHT22;8222;51.462;12.630;2022-09-30T12:05:10;19.40;99.90
16229;DHT22;8222;51.462;12.630;2022-09-30T12:13:50;19.60;99.90
16229;DHT22;8222;51.462;12.630;2022-09-30T12:16:19;19.70;99.90
16229;DHT22;8222;51.462;12.630;2022-09-30T12:22:05;19.80;99.90
16229;DHT22;8222;51.462;12.630;2022-09-30T12:24:41;20.10;99.90
16229;DHT22;8222;51.462;12.630;2022-09-30T12:27:35;20.10;99.90
16229;DHT22;8222;51.462;12.630;2022-09-30T12:30:21;20.10;99.90
16229;DHT22;8222;51.462;12.630;2022-09-30T12:49:36;20.20;99.90
16229;DHT22;8222;51.462;12.630;2022-09-30T12:52:05;20.40;99.90
16229;DHT22;8222;51.462;12.630;2022-09-30T12:54:38;20.50;99.90
16229;DHT22;8222;51.462;12.630;2022-09-30T12:57:06;20.50;99.90
16229;DHT22;8222;51.462;12.630;2022-09-30T12:59:42;20.60;99.90
16229;DHT22;8222;51.462;12.630;2022-09-30T13:02:34;20.50;99.90
16229;DHT22;8222;51.462;12.630;2022-09-30T13:13:30;20.70;99.90
16229;DHT22;8222;51.462;12.630;2022-09-30T13:15:58;20.70;99.90
16229;DHT22;8222;51.462;12.630;2022-09-30T13:21:15;20.70;99.90
16229;DHT22;8222;51.462;12.630;2022-09-30T13:23:50;20.70;99.90
16229;DHT22;8222;51.462;12.630;2022-09-30T13:26:31;20.70;99.90
16229;DHT22;8222;51.462;12.630;2022-09-30T13:41:43;20.60;99.90
16229;DHT22;8222;51.462;12.630;2022-09-30T13:44:19;20.80;99.90
16229;DHT22;8222;51.462;12.630;2022-09-30T13:46:55;20.90;99.90
16229;DHT22;8222;51.462;12.630;2022-09-30T13:52:14;20.90;99.90
16229;DHT22;8222;51.462;12.630;2022-09-30T13:54:43;21.10;99.30
16229;DHT22;8222;51.462;12.630;2022-09-30T13:57:22;21.10;99.70
16229;DHT22;8222;51.462;12.630;2022-09-30T14:00:06;21.00;99.90
16229;DHT22;8222;51.462;12.630;2022-09-30T14:03:01;21.00;99.60
16229;DHT22;8222;51.462;12.630;2022-09-30T14:06:00;21.00;99.90
16229;DHT22;8222;51.462;12.630;2022-09-30T14:08:53;20.80;99.90
16229;DHT22;8222;51.462;12.630;2022-09-30T14:22:46;20.00;99.90
16229;DHT22;8222;51.462;12.630;2022-09-30T14:25:18;19.70;99.90
16229;DHT22;8222;51.462;12.630;2022-09-30T14:30:21;19.40;99.90
16229;DHT22;8222;51.462;12.630;2022-09-30T14:32:52;19.40;99.90
16229;DHT22;8222;51.462;12.630;2022-09-30T14:35:22;19.40;99.90
16229;DHT22;8222;51.462;12.630;2022-09-30T14:37:55;19.40;99.90
16229;DHT22;8222;51.462;12.630;2022-09-30T14:40:36;19.40;99.90
16229;DHT22;8222;51.462;12.630;2022-09-30T14:43:12;19.20;99.90
16229;DHT22;8222;51.462;12.630;2022-09-30T14:45:42;19.10;99.90
16229;DHT22;8222;51.462;12.630;2022-09-30T14:48:24;19.10;99.90
16229;DHT22;8222;51.462;12.630;2022-09-30T14:51:01;19.10;99.90
16229;DHT22;8222;51.462;12.630;2022-09-30T14:53:33;19.10;99.90
16229;DHT22;8222;51.462;12.630;2022-09-30T14:56:00;19.00;99.90
16229;DHT22;8222;51.462;12.630;2022-09-30T14:58:27;19.00;99.90
16229;DHT22;8222;51.462;12.630;2022-09-30T15:03:26;18.90;99.90
16229;DHT22;8222;51.462;12.630;2022-09-30T15:05:54;19.00;99.90
16229;DHT22;8222;51.462;12.630;2022-09-30T15:08:21;18.90;99.90
16229;DHT22;8222;51.462;12.630;2022-09-30T15:10:48;18.80;99.90
16229;DHT22;8222;51.462;12.630;2022-09-30T15:13:17;18.80;99.90
16229;DHT22;8222;51.462;12.630;2022-09-30T15:15:43;18.60;99.90
16229;DHT22;8222;51.462;12.630;2022-09-30T15:18:40;18.60;99.90
16229;DHT22;8222;51.462;12.630;2022-09-30T15:21:10;18.50;99.90
16229;DHT22;8222;51.462;12.630;2022-09-30T15:23:41;18.60;99.90
16229;DHT22;8222;51.462;12.630;2022-09-30T15:26:09;18.60;99.90
16229;DHT22;8222;51.462;12.630;2022-09-30T15:28:36;18.50;99.90
16229;DHT22;8222;51.462;12.630;2022-09-30T15:31:02;18.50;99.90
16229;DHT22;8222;51.462;12.630;2022-09-30T15:33:29;18.50;99.90
16229;DHT22;8222;51.462;12.630;2022-09-30T15:36:04;18.30;99.90
16229;DHT22;8222;51.462;12.630;2022-09-30T15:38:33;18.20;99.90
16229;DHT22;8222;51.462;12.630;2022-09-30T15:41:06;18.10;99.90
16229;DHT22;8222;51.462;12.630;2022-09-30T15:46:30;17.90;99.90
16229;DHT22;8222;51.462;12.630;2022-09-30T15:49:02;17.70;99.90
16229;DHT22;8222;51.462;12.630;2022-09-30T15:51:36;17.70;99.90
16229;DHT22;8222;51.462;12.630;2022-09-30T15:56:40;17.60;99.90
16229;DHT22;8222;51.462;12.630;2022-09-30T15:59:13;17.40;99.90
16229;DHT22;8222;51.462;12.630;2022-09-30T16:04:31;17.20;99.90
16229;DHT22;8222;51.462;12.630;2022-09-30T16:06:59;17.10;99.90
16229;DHT22;8222;51.462;12.630;2022-09-30T16:09:37;17.10;99.90
16229;DHT22;8222;51.462;12.630;2022-09-30T16:14:45;16.90;99.90
16229;DHT22;8222;51.462;12.630;2022-09-30T16:17:28;16.70;99.90
16229;DHT22;8222;51.462;12.630;2022-09-30T16:19:59;16.70;99.90
16229;DHT22;8222;51.462;12.630;2022-09-30T16:22:37;16.50;99.90
16229;DHT22;8222;51.462;12.630;2022-09-30T16:25:26;16.30;99.90
16229;DHT22;8222;51.462;12.630;2022-09-30T16:28:10;16.20;99.90
16229;DHT22;8222;51.462;12.630;2022-09-30T16:30:43;16.10;99.90
16229;DHT22;8222;51.462;12.630;2022-09-30T16:33:10;16.00;99.90
16229;DHT22;8222;51.462;12.630;2022-09-30T16:35:37;15.90;99.90
16229;DHT22;8222;51.462;12.630;2022-09-30T16:38:06;15.80;99.90
16229;DHT22;8222;51.462;12.630;2022-09-30T16:40:33;15.70;99.90
16229;DHT22;8222;51.462;12.630;2022-09-30T16:43:06;15.60;99.90
16229;DHT22;8222;51.462;12.630;2022-09-30T16:45:32;15.60;99.90
16229;DHT22;8222;51.462;12.630;2022-09-30T16:47:59;15.50;99.90
16229;DHT22;8222;51.462;12.630;2022-09-30T16:50:48;15.40;99.90
16229;DHT22;8222;51.462;12.630;2022-09-30T16:53:17;15.40;99.90
16229;DHT22;8222;51.462;12.630;2022-09-30T16:55:43;15.30;99.90
16229;DHT22;8222;51.462;12.630;2022-09-30T16:58:11;15.20;99.90
16229;DHT22;8222;51.462;12.630;2022-09-30T17:00:40;15.10;99.90
16229;DHT22;8222;51.462;12.630;2022-09-30T17:03:09;15.00;99.90
16229;DHT22;8222;51.462;12.630;2022-09-30T17:05:38;15.00;99.90
16229;DHT22;8222;51.462;12.630;2022-09-30T17:08:08;14.90;99.90
16229;DHT22;8222;51.462;12.630;2022-09-30T17:10:34;14.70;99.90
16229;DHT22;8222;51.462;12.630;2022-09-30T17:13:01;14.60;99.90
16229;DHT22;8222;51.462;12.630;2022-09-30T17:15:29;14.50;99.90
16229;DHT22;8222;51.462;12.630;2022-09-30T17:17:58;14.40;99.90
16229;DHT22;8222;51.462;12.630;2022-09-30T17:20:24;14.30;99.90
16229;DHT22;8222;51.462;12.630;2022-09-30T17:22:50;14.30;99.90
16229;DHT22;8222;51.462;12.630;2022-09-30T17:25:16;14.30;99.90
16229;DHT22;8222;51.462;12.630;2022-09-30T17:27:46;14.10;99.90
16229;DHT22;8222;51.462;12.630;2022-09-30T17:30:13;14.00;99.90
16229;DHT22;8222;51.462;12.630;2022-09-30T17:32:40;14.00;99.90
16229;DHT22;8222;51.462;12.630;2022-09-30T17:35:08;13.90;99.90
16229;DHT22;8222;51.462;12.630;2022-09-30T17:37:34;13.80;99.90
16229;DHT22;8222;51.462;12.630;2022-09-30T17:40:04;13.70;99.90
16229;DHT22;8222;51.462;12.630;2022-09-30T17:42:52;13.70;99.90
16229;DHT22;8222;51.462;12.630;2022-09-30T17:45:40;13.70;99.90
16229;DHT22;8222;51.462;12.630;2022-09-30T17:48:07;13.60;99.90
16229;DHT22;8222;51.462;12.630;2022-09-30T17:50:43;13.70;99.90
16229;DHT22;8222;51.462;12.630;2022-09-30T17:53:13;13.60;99.90
16229;DHT22;8222;51.462;12.630;2022-09-30T17:55:41;13.70;99.90
16229;DHT22;8222;51.462;12.630;2022-09-30T17:58:08;13.60;99.90
16229;DHT22;8222;51.462;12.630;2022-09-30T18:00:34;13.50;99.90
16229;DHT22;8222;51.462;12.630;2022-09-30T18:03:00;13.50;99.90
16229;DHT22;8222;51.462;12.630;2022-09-30T18:05:27;13.50;99.90
16229;DHT22;8222;51.462;12.630;2022-09-30T18:07:53;13.30;99.90
16229;DHT22;8222;51.462;12.630;2022-09-30T18:10:21;13.30;99.90
16229;DHT22;8222;51.462;12.630;2022-09-30T18:12:46;13.30;99.90
16229;DHT22;8222;51.462;12.630;2022-09-30T18:15:14;13.30;99.90
16229;DHT22;8222;51.462;12.630;2022-09-30T18:17:40;13.20;99.90
16229;DHT22;8222;51.462;12.630;2022-09-30T18:20:09;13.20;99.90
16229;DHT22;8222;51.462;12.630;2022-09-30T18:22:35;13.10;99.90
16229;DHT22;8222;51.462;12.630;2022-09-30T18:25:00;13.00;99.90
16229;DHT22;8222;51.462;12.630;2022-09-30T18:27:56;13.00;99.90
16229;DHT22;8222;51.462;12.630;2022-09-30T18:30:23;13.00;99.90
16229;DHT22;8222;51.462;12.630;2022-09-30T18:32:50;13.00;99.90
16229;DHT22;8222;51.462;12.630;2022-09-30T18:35:18;12.90;99.90
16229;DHT22;8222;51.462;12.630;2022-09-30T18:37:48;12.80;99.90
16229;DHT22;8222;51.462;12.630;2022-09-30T18:40:21;12.80;99.90
16229;DHT22;8222;51.462;12.630;2022-09-30T18:42:52;12.70;99.90
16229;DHT22;8222;51.462;12.630;2022-09-30T18:45:20;12.70;99.90
16229;DHT22;8222;51.462;12.630;2022-09-30T18:47:52;12.70;99.90
16229;DHT22;8222;51.462;12.630;2022-09-30T18:50:18;12.70;99.90
16229;DHT22;8222;51.462;12.630;2022-09-30T18:52:44;12.60;99.90
16229;DHT22;8222;51.462;12.630;2022-09-30T18:55:10;12.60;99.90
16229;DHT22;8222;51.462;12.630;2022-09-30T18:57:36;12.60;99.90
16229;DHT22;8222;51.462;12.630;2022-09-30T19:00:02;12.60;99.90
16229;DHT22;8222;51.462;12.630;2022-09-30T19:02:28;12.50;99.90
16229;DHT22;8222;51.462;12.630;2022-09-30T19:04:56;12.40;99.90
16229;DHT22;8222;51.462;12.630;2022-09-30T19:07:22;12.40;99.90
16229;DHT22;8222;51.462;12.630;2022-09-30T19:09:49;12.40;99.90
16229;DHT22;8222;51.462;12.630;2022-09-30T19:12:14;12.30;99.90
16229;DHT22;8222;51.462;12.630;2022-09-30T19:14:42;12.30;99.90
16229;DHT22;8222;51.462;12.630;2022-09-30T19:17:10;12.30;99.90
16229;DHT22;8222;51.462;12.630;2022-09-30T19:19:36;12.20;99.90
16229;DHT22;8222;51.462;12.630;2022-09-30T19:22:11;12.10;99.90
16229;DHT22;8222;51.462;12.630;2022-09-30T19:24:38;12.10;99.90
16229;DHT22;8222;51.462;12.630;2022-09-30T19:27:05;12.10;99.90
16229;DHT22;8222;51.462;12.630;2022-09-30T19:29:31;12.10;99.90
16229;DHT22;8222;51.462;12.630;2022-09-30T19:31:58;12.10;99.90
16229;DHT22;8222;51.462;12.630;2022-09-30T19:34:26;12.10;99.90
16229;DHT22;8222;51.462;12.630;2022-09-30T19:36:52;12.10;99.90
16229;DHT22;8222;51.462;12.630;2022-09-30T19:39:22;12.10;99.90
16229;DHT22;8222;51.462;12.630;2022-09-30T19:41:48;12.10;99.90
16229;DHT22;8222;51.462;12.630;2022-09-30T19:44:14;11.90;99.90
16229;DHT22;8222;51.462;12.630;2022-09-30T19:46:47;11.90;99.90
16229;DHT22;8222;51.462;12.630;2022-09-30T19:49:13;11.90;99.90
16229;DHT22;8222;51.462;12.630;2022-09-30T19:51:41;11.90;99.90